createdAt,value
2022-08-01T00:02:25.164Z,25.90
2022-08-01T00:05:11.823Z,25.80
2022-08-01T00:07:57.324Z,25.80
2022-08-01T00:11:03.607Z,25.70
2022-08-01T00:13:49.479Z,25.70
2022-08-01T00:16:35.211Z,25.70
2022-08-01T00:19:20.749Z,25.70
2022-08-01T00:22:06.507Z,25.70
2022-08-01T00:24:52.284Z,25.80
2022-08-01T00:27:38.082Z,25.90
2022-08-01T00:30:23.948Z,25.90
2022-08-01T00:33:09.773Z,25.60
2022-08-01T00:35:56.040Z,25.50
2022-08-01T00:38:41.833Z,25.40
2022-08-01T00:41:27.492Z,25.60
2022-08-01T00:44:12.945Z,25.20
2022-08-01T00:46:58.447Z,25.40
2022-08-01T00:49:43.965Z,25.50
2022-08-01T00:52:29.841Z,25.50
2022-08-01T00:55:16.277Z,25.50
2022-08-01T00:58:05.443Z,25.50
2022-08-01T01:00:54.700Z,25.60
2022-08-01T01:03:58.180Z,25.60
2022-08-01T01:07:26.735Z,25.30
2022-08-01T01:10:20.642Z,25.40
2022-08-01T01:13:28.754Z,25.50
2022-08-01T01:16:16.710Z,25.40
2022-08-01T01:19:06.017Z,25.30
2022-08-01T01:22:26.427Z,25.30
2022-08-01T01:25:38.523Z,25.40
2022-08-01T01:28:55.242Z,25.60
2022-08-01T01:31:52.395Z,25.70
2022-08-01T01:34:41.000Z,25.50
2022-08-01T01:37:28.364Z,25.60
2022-08-01T01:40:15.015Z,25.60
2022-08-01T01:43:01.299Z,25.60
2022-08-01T01:45:49.155Z,25.60
2022-08-01T01:48:39.856Z,25.50
2022-08-01T01:51:28.355Z,25.40
2022-08-01T01:54:14.068Z,25.40
2022-08-01T01:57:02.726Z,25.40
2022-08-01T01:59:50.853Z,25.60
2022-08-01T02:02:38.466Z,26.70
2022-08-01T02:05:25.546Z,25.50
2022-08-01T02:08:13.938Z,25.60
2022-08-01T02:11:20.319Z,25.70
2022-08-01T02:14:09.316Z,25.60
2022-08-01T02:16:58.324Z,25.60
2022-08-01T02:19:44.236Z,25.50
2022-08-01T02:22:37.895Z,24.50
2022-08-01T02:26:10.451Z,24.30
2022-08-01T02:29:08.219Z,24.10
2022-08-01T02:31:56.001Z,24.70
2022-08-01T02:34:43.287Z,25.10
2022-08-01T02:37:32.477Z,25.10
2022-08-01T02:40:19.187Z,24.30
2022-08-01T02:43:06.022Z,24.00
2022-08-01T02:45:55.418Z,24.20
2022-08-01T02:48:43.590Z,24.40
2022-08-01T02:51:32.090Z,23.80
2022-08-01T02:54:19.753Z,23.90
2022-08-01T02:57:08.318Z,23.70
2022-08-01T02:59:57.283Z,23.60
2022-08-01T03:02:44.670Z,23.50
2022-08-01T03:05:32.948Z,23.50
2022-08-01T03:08:20.671Z,23.60
2022-08-01T03:11:07.275Z,23.80
2022-08-01T03:13:54.890Z,23.60
2022-08-01T03:16:44.052Z,23.60
2022-08-01T03:19:31.379Z,23.80
2022-08-01T03:22:17.647Z,23.80
2022-08-01T03:25:05.185Z,23.90
2022-08-01T03:27:55.731Z,24.30
2022-08-01T03:30:43.250Z,24.50
2022-08-01T03:33:29.137Z,24.40
2022-08-01T03:36:16.893Z,24.30
2022-08-01T03:39:04.789Z,24.80
2022-08-01T03:42:02.457Z,24.80
2022-08-01T03:44:59.398Z,24.70
2022-08-01T03:47:47.750Z,24.70
2022-08-01T03:50:35.439Z,24.60
2022-08-01T03:53:25.699Z,24.50
2022-08-01T03:56:13.794Z,24.50
2022-08-01T03:59:01.643Z,24.40
2022-08-01T04:01:48.798Z,24.30
2022-08-01T04:04:34.912Z,24.20
2022-08-01T04:07:31.563Z,24.20
2022-08-01T04:10:17.908Z,24.10
2022-08-01T04:13:03.768Z,24.00
2022-08-01T04:15:49.603Z,24.00
2022-08-01T04:18:35.424Z,23.90
2022-08-01T04:21:25.903Z,23.90
2022-08-01T04:24:18.780Z,23.80
2022-08-01T04:27:11.129Z,23.80
2022-08-01T04:29:59.894Z,23.80
2022-08-01T04:32:47.951Z,23.80
2022-08-01T04:36:02.936Z,23.90
2022-08-01T04:38:43.279Z,23.90
2022-08-01T04:41:30.868Z,23.90
2022-08-01T04:44:17.576Z,24.00
2022-08-01T04:47:06.138Z,24.00
2022-08-01T04:49:52.664Z,24.10
2022-08-01T04:52:39.358Z,24.20
2022-08-01T04:55:26.521Z,24.10
2022-08-01T04:58:17.406Z,24.10
2022-08-01T05:01:04.017Z,24.20
2022-08-01T05:03:49.435Z,24.20
2022-08-01T05:06:34.906Z,24.10
2022-08-01T05:09:21.512Z,24.10
2022-08-01T05:12:08.541Z,24.20
2022-08-01T05:14:54.387Z,24.20
2022-08-01T05:17:40.284Z,24.10
2022-08-01T05:20:26.168Z,24.20
2022-08-01T05:23:19.226Z,24.30
2022-08-01T05:26:17.702Z,24.30
2022-08-01T05:29:24.403Z,24.50
2022-08-01T05:32:10.628Z,24.70
2022-08-01T05:34:56.194Z,25.10
2022-08-01T05:37:41.866Z,25.20
2022-08-01T05:40:27.658Z,25.30
2022-08-01T05:43:19.077Z,25.30
2022-08-01T05:46:04.970Z,25.50
2022-08-01T05:48:50.724Z,25.60
2022-08-01T05:51:37.011Z,25.70
2022-08-01T05:54:22.690Z,25.80
2022-08-01T05:57:08.496Z,25.80
2022-08-01T05:59:54.381Z,26.20
2022-08-01T06:02:44.200Z,26.40
2022-08-01T06:05:30.025Z,26.70
2022-08-01T06:08:15.953Z,27.00
2022-08-01T06:11:01.517Z,27.40
2022-08-01T06:13:48.637Z,27.70
2022-08-01T06:16:34.518Z,28.20
2022-08-01T06:19:20.328Z,28.50
2022-08-01T06:22:06.307Z,28.60
2022-08-01T06:24:52.601Z,28.90
2022-08-01T06:27:38.535Z,29.20
2022-08-01T06:30:24.563Z,29.40
2022-08-01T06:33:10.431Z,29.50
2022-08-01T06:35:56.231Z,29.80
2022-08-01T06:38:41.917Z,29.90
2022-08-01T06:41:27.590Z,29.80
2022-08-01T06:44:13.867Z,29.40
2022-08-01T06:46:59.780Z,29.20
2022-08-01T06:49:45.593Z,28.90
2022-08-01T06:52:31.334Z,28.40
2022-08-01T06:55:16.888Z,28.60
2022-08-01T06:58:02.530Z,28.60
2022-08-01T07:00:48.164Z,29.00
2022-08-01T07:03:52.700Z,29.50
2022-08-01T07:06:39.692Z,29.50
2022-08-01T07:09:25.541Z,29.10
2022-08-01T07:12:12.401Z,29.70
2022-08-01T07:14:58.169Z,29.90
2022-08-01T07:17:44.358Z,29.10
2022-08-01T07:20:32.913Z,28.90
2022-08-01T07:23:22.678Z,28.60
2022-08-01T07:26:15.848Z,29.30
2022-08-01T07:29:02.090Z,29.70
2022-08-01T07:31:47.760Z,30.00
2022-08-01T07:34:33.622Z,30.30
2022-08-01T07:37:48.592Z,30.30
2022-08-01T07:40:24.742Z,30.30
2022-08-01T07:43:10.372Z,30.50
2022-08-01T07:45:56.338Z,30.60
2022-08-01T07:48:42.734Z,30.50
2022-08-01T07:51:28.609Z,30.50
2022-08-01T07:54:14.561Z,30.60
2022-08-01T07:57:00.169Z,30.50
2022-08-01T07:59:45.524Z,30.60
2022-08-01T08:02:31.083Z,31.00
2022-08-01T08:05:17.004Z,30.90
2022-08-01T08:08:23.261Z,31.00
2022-08-01T08:11:08.742Z,30.30
2022-08-01T08:13:54.997Z,30.70
2022-08-01T08:16:40.473Z,30.80
2022-08-01T08:19:38.375Z,30.50
2022-08-01T08:22:24.538Z,30.20
2022-08-01T08:25:10.523Z,30.60
2022-08-01T08:27:58.183Z,29.80
2022-08-01T08:30:43.929Z,30.40
2022-08-01T08:33:29.616Z,31.30
2022-08-01T08:36:16.125Z,31.40
2022-08-01T08:39:03.477Z,31.60
2022-08-01T08:41:50.057Z,31.40
2022-08-01T08:44:35.911Z,31.40
2022-08-01T08:47:23.344Z,31.50
2022-08-01T08:50:09.435Z,32.20
2022-08-01T08:52:56.272Z,32.30
2022-08-01T08:55:45.075Z,32.70
2022-08-01T08:58:48.552Z,33.10
2022-08-01T09:01:36.176Z,34.40
2022-08-01T09:04:26.392Z,35.80
2022-08-01T09:07:15.071Z,35.80
2022-08-01T09:10:18.331Z,36.30
2022-08-01T09:13:14.026Z,37.40
2022-08-01T09:15:59.987Z,39.20
2022-08-01T09:18:45.885Z,39.10
2022-08-01T09:21:40.311Z,39.90
2022-08-01T09:24:30.491Z,40.00
2022-08-01T09:27:22.138Z,37.70
2022-08-01T09:30:19.300Z,36.30
2022-08-01T09:33:17.789Z,36.80
2022-08-01T09:36:07.609Z,38.80
2022-08-01T09:39:14.089Z,39.00
2022-08-01T09:42:03.738Z,39.00
2022-08-01T09:44:54.893Z,37.60
2022-08-01T09:47:41.343Z,37.50
2022-08-01T09:50:49.574Z,37.20
2022-08-01T09:53:51.939Z,37.30
2022-08-01T09:56:44.021Z,36.60
2022-08-01T09:59:57.187Z,36.40
2022-08-01T10:02:44.382Z,37.90
2022-08-01T10:05:37.140Z,37.30
2022-08-01T10:08:26.403Z,37.40
2022-08-01T10:11:21.717Z,38.30
2022-08-01T10:14:22.454Z,37.90
2022-08-01T10:17:18.383Z,37.90
2022-08-01T10:20:06.753Z,38.20
2022-08-01T10:23:08.515Z,39.50
2022-08-01T10:25:56.264Z,38.60
2022-08-01T10:28:45.738Z,39.80
2022-08-01T10:31:34.067Z,40.40
2022-08-01T10:34:20.863Z,40.10
2022-08-01T10:37:09.500Z,41.40
2022-08-01T10:40:27.199Z,40.20
2022-08-01T10:43:03.106Z,39.40
2022-08-01T10:45:49.733Z,38.70
2022-08-01T10:48:57.895Z,39.30
2022-08-01T10:51:52.696Z,40.00
2022-08-01T10:54:52.782Z,39.60
2022-08-01T10:57:52.750Z,39.20
2022-08-01T11:00:38.946Z,40.50
2022-08-01T11:03:55.632Z,40.30
2022-08-01T11:06:55.529Z,40.20
2022-08-01T11:09:51.373Z,38.90
2022-08-01T11:12:43.914Z,38.30
2022-08-01T11:15:31.268Z,38.70
2022-08-01T11:18:29.748Z,39.70
2022-08-01T11:21:58.197Z,40.90
2022-08-01T11:24:52.272Z,42.80
2022-08-01T11:27:38.023Z,42.90
2022-08-01T11:30:26.674Z,43.00
2022-08-01T11:33:13.969Z,42.50
2022-08-01T11:36:13.019Z,41.70
2022-08-01T11:39:13.316Z,41.30
2022-08-01T11:42:21.043Z,42.30
2022-08-01T11:45:12.500Z,42.40
2022-08-01T11:48:02.081Z,42.30
2022-08-01T11:50:50.689Z,43.30
2022-08-01T11:53:38.439Z,43.70
2022-08-01T11:56:28.790Z,42.90
2022-08-01T11:59:15.379Z,43.60
2022-08-01T12:02:02.982Z,41.10
2022-08-01T12:05:27.908Z,42.30
2022-08-01T12:08:26.350Z,42.30
2022-08-01T12:11:11.974Z,43.30
2022-08-01T12:13:58.258Z,42.20
2022-08-01T12:16:55.069Z,41.80
2022-08-01T12:19:42.213Z,42.10
2022-08-01T12:22:27.862Z,44.00
2022-08-01T12:25:16.275Z,44.90
2022-08-01T12:28:07.647Z,44.50
2022-08-01T12:30:53.636Z,42.60
2022-08-01T12:33:44.337Z,42.60
2022-08-01T12:36:31.860Z,43.10
2022-08-01T12:39:17.641Z,43.80
2022-08-01T12:42:08.575Z,43.80
2022-08-01T12:44:55.553Z,44.10
2022-08-01T12:47:42.441Z,39.70
2022-08-01T12:50:31.857Z,39.90
2022-08-01T12:53:22.615Z,38.90
2022-08-01T12:56:10.645Z,42.20
2022-08-01T12:58:57.091Z,43.20
2022-08-01T13:01:43.273Z,41.40
2022-08-01T13:04:29.112Z,41.70
2022-08-01T13:07:14.761Z,41.00
2022-08-01T13:10:00.646Z,42.10
2022-08-01T13:12:54.108Z,43.20
2022-08-01T13:15:44.529Z,44.60
2022-08-01T13:18:33.496Z,43.30
2022-08-01T13:21:24.634Z,41.10
2022-08-01T13:24:13.223Z,40.10
2022-08-01T13:27:05.075Z,39.10
2022-08-01T13:29:53.923Z,38.00
2022-08-01T13:32:39.914Z,36.80
2022-08-01T13:35:26.036Z,36.70
2022-08-01T13:38:11.516Z,36.30
2022-08-01T13:41:00.637Z,36.50
2022-08-01T13:43:58.717Z,36.80
2022-08-01T13:46:49.829Z,36.90
2022-08-01T13:49:38.241Z,36.20
2022-08-01T13:52:26.707Z,36.10
2022-08-01T13:55:12.561Z,36.30
2022-08-01T13:58:07.291Z,36.20
2022-08-01T14:00:53.336Z,35.00
2022-08-01T14:03:39.326Z,36.20
2022-08-01T14:06:25.082Z,36.10
2022-08-01T14:09:17.360Z,36.30
2022-08-01T14:12:05.173Z,36.30
2022-08-01T14:14:53.765Z,36.30
2022-08-01T14:17:39.844Z,36.00
2022-08-01T14:20:34.757Z,35.90
2022-08-01T14:23:20.812Z,36.00
2022-08-01T14:26:12.122Z,36.30
2022-08-01T14:28:58.329Z,36.30
2022-08-01T14:31:43.958Z,36.00
2022-08-01T14:34:29.434Z,35.90
2022-08-01T14:37:14.998Z,35.70
2022-08-01T14:40:05.828Z,35.80
2022-08-01T14:42:52.750Z,35.90
2022-08-01T14:45:38.208Z,36.00
2022-08-01T14:48:24.183Z,36.10
2022-08-01T14:51:09.961Z,36.30
2022-08-01T14:53:55.639Z,36.50
2022-08-01T14:56:41.212Z,36.30
2022-08-01T14:59:26.997Z,35.90
2022-08-01T15:02:12.498Z,36.00
2022-08-01T15:04:58.413Z,35.80
2022-08-01T15:07:52.465Z,35.60
2022-08-01T15:10:39.463Z,35.40
2022-08-01T15:13:25.395Z,35.60
2022-08-01T15:16:12.097Z,35.90
2022-08-01T15:18:58.179Z,35.80
2022-08-01T15:21:44.206Z,35.60
2022-08-01T15:24:30.165Z,35.70
2022-08-01T15:27:16.198Z,36.10
2022-08-01T15:30:02.121Z,36.20
2022-08-01T15:32:48.017Z,36.20
2022-08-01T15:35:37.361Z,35.90
2022-08-01T15:38:23.172Z,35.50
2022-08-01T15:41:10.707Z,35.20
2022-08-01T15:43:56.475Z,35.70
2022-08-01T15:46:42.179Z,35.60
2022-08-01T15:49:28.253Z,35.80
2022-08-01T15:52:21.298Z,35.70
2022-08-01T15:55:08.681Z,35.80
2022-08-01T15:57:54.571Z,36.10
2022-08-01T16:00:40.437Z,36.00
2022-08-01T16:03:27.807Z,36.10
2022-08-01T16:06:13.996Z,35.70
2022-08-01T16:09:00.860Z,35.50
2022-08-01T16:11:51.070Z,35.40
2022-08-01T16:14:37.374Z,35.00
2022-08-01T16:17:23.106Z,35.10
2022-08-01T16:20:09.726Z,35.20
2022-08-01T16:22:55.475Z,35.40
2022-08-01T16:25:41.235Z,35.20
2022-08-01T16:28:26.979Z,35.30
2022-08-01T16:31:23.664Z,35.20
2022-08-01T16:34:18.814Z,35.20
2022-08-01T16:37:07.737Z,35.20
2022-08-01T16:39:54.035Z,35.50
2022-08-01T16:42:42.024Z,35.60
2022-08-01T16:45:27.795Z,35.40
2022-08-01T16:48:21.088Z,35.40
2022-08-01T16:51:27.165Z,35.20
2022-08-01T16:54:24.871Z,35.20
2022-08-01T16:57:12.638Z,34.80
2022-08-01T16:59:58.494Z,34.90
2022-08-01T17:02:45.791Z,35.00
2022-08-01T17:05:32.549Z,35.10
2022-08-01T17:08:18.423Z,35.00
2022-08-01T17:11:05.061Z,35.00
2022-08-01T17:13:50.776Z,34.80
2022-08-01T17:16:36.431Z,34.40
2022-08-01T17:19:32.976Z,34.70
2022-08-01T17:22:20.470Z,35.00
2022-08-01T17:25:06.688Z,35.00
2022-08-01T17:28:01.532Z,35.30
2022-08-01T17:30:47.109Z,35.30
2022-08-01T17:33:45.803Z,35.40
2022-08-01T17:36:32.780Z,35.00
2022-08-01T17:39:23.156Z,34.50
2022-08-01T17:42:11.013Z,34.30
2022-08-01T17:44:58.121Z,34.20
2022-08-01T17:47:50.601Z,34.50
2022-08-01T17:50:37.058Z,34.60
2022-08-01T17:53:24.065Z,34.70
2022-08-01T17:56:09.631Z,34.80
2022-08-01T17:58:55.610Z,34.60
2022-08-01T18:01:45.170Z,34.40
2022-08-01T18:04:33.997Z,34.30
2022-08-01T18:07:21.670Z,34.40
2022-08-01T18:10:11.778Z,34.10
2022-08-01T18:12:57.770Z,33.90
2022-08-01T18:15:45.130Z,33.90
2022-08-01T18:18:33.428Z,33.90
2022-08-01T18:21:20.155Z,33.90
2022-08-01T18:24:07.023Z,34.00
2022-08-01T18:26:54.219Z,34.10
2022-08-01T18:29:47.151Z,34.20
2022-08-01T18:32:34.860Z,34.10
2022-08-01T18:35:20.458Z,34.00
2022-08-01T18:38:10.032Z,34.20
2022-08-01T18:40:56.665Z,34.20
2022-08-01T18:43:42.242Z,34.30
2022-08-01T18:46:27.635Z,34.20
2022-08-01T18:49:13.392Z,34.20
2022-08-01T18:51:59.170Z,34.40
2022-08-01T18:54:45.164Z,34.40
2022-08-01T18:57:30.884Z,34.40
2022-08-01T19:00:17.262Z,34.20
2022-08-01T19:03:04.310Z,33.80
2022-08-01T19:05:50.121Z,33.60
2022-08-01T19:08:35.541Z,33.50
2022-08-01T19:11:21.530Z,33.60
2022-08-01T19:14:07.034Z,33.70
2022-08-01T19:16:52.962Z,33.40
2022-08-01T19:19:39.028Z,33.10
2022-08-01T19:22:24.858Z,33.00
2022-08-01T19:25:11.016Z,33.00
2022-08-01T19:28:00.393Z,32.90
2022-08-01T19:30:53.597Z,33.00
2022-08-01T19:33:40.455Z,32.80
2022-08-01T19:36:27.777Z,32.60
2022-08-01T19:39:16.973Z,32.20
2022-08-01T19:42:04.095Z,32.20
2022-08-01T19:44:50.152Z,32.10
2022-08-01T19:47:52.304Z,32.30
2022-08-01T19:50:45.942Z,32.40
2022-08-01T19:53:37.198Z,32.40
2022-08-01T19:56:25.909Z,32.30
2022-08-01T19:59:22.891Z,32.30
2022-08-01T20:02:09.838Z,32.30
2022-08-01T20:04:55.350Z,32.20
2022-08-01T20:07:41.400Z,32.20
2022-08-01T20:10:29.969Z,32.00
2022-08-01T20:13:16.981Z,31.80
2022-08-01T20:16:05.927Z,31.60
2022-08-01T20:18:51.860Z,31.50
2022-08-01T20:21:40.164Z,31.40
2022-08-01T20:24:28.200Z,31.60
2022-08-01T20:27:15.744Z,31.60
2022-08-01T20:30:01.555Z,31.50
2022-08-01T20:32:47.554Z,31.50
2022-08-01T20:35:51.884Z,31.10
2022-08-01T20:38:41.882Z,31.00
2022-08-01T20:41:28.349Z,31.20
2022-08-01T20:44:14.138Z,30.90
2022-08-01T20:47:02.247Z,31.10
2022-08-01T20:49:48.994Z,31.10
2022-08-01T20:52:35.868Z,30.90
2022-08-01T20:55:25.867Z,30.90
2022-08-01T20:58:15.758Z,30.70
2022-08-01T21:01:04.086Z,31.00
2022-08-01T21:04:11.065Z,31.10
2022-08-01T21:07:09.631Z,31.00
2022-08-01T21:10:09.514Z,31.00
2022-08-01T21:13:19.068Z,31.00
2022-08-01T21:16:24.366Z,30.90
2022-08-01T21:19:21.402Z,30.80
2022-08-01T21:22:14.705Z,30.90
2022-08-01T21:25:07.857Z,30.90
2022-08-01T21:27:55.619Z,30.90
2022-08-01T21:30:42.595Z,30.60
2022-08-01T21:33:54.469Z,30.40
2022-08-01T21:36:47.479Z,30.20
2022-08-01T21:39:37.794Z,30.30
2022-08-01T21:42:27.137Z,30.30
2022-08-01T21:45:14.428Z,29.80
2022-08-01T21:48:00.745Z,30.20
2022-08-01T21:51:03.889Z,30.20
2022-08-01T21:53:53.556Z,30.40
2022-08-01T21:56:51.349Z,30.40
2022-08-01T21:59:47.087Z,30.30
2022-08-01T22:02:42.620Z,30.40
2022-08-01T22:05:50.561Z,30.40
2022-08-01T22:08:39.825Z,30.30
2022-08-01T22:11:31.277Z,30.40
2022-08-01T22:14:18.859Z,30.30
2022-08-01T22:17:06.137Z,29.80
2022-08-01T22:19:55.062Z,29.10
2022-08-01T22:22:50.716Z,29.50
2022-08-01T22:25:37.469Z,29.90
2022-08-01T22:28:24.077Z,30.20
2022-08-01T22:31:09.941Z,30.20
2022-08-01T22:33:56.133Z,29.70
2022-08-01T22:36:41.926Z,30.00
2022-08-01T22:39:27.641Z,30.00
2022-08-01T22:42:14.386Z,29.60
2022-08-01T22:45:12.375Z,29.90
2022-08-01T22:48:26.279Z,30.00
2022-08-01T22:51:31.010Z,30.10
2022-08-01T22:54:23.461Z,30.20
2022-08-01T22:57:28.286Z,30.20
2022-08-01T23:00:15.224Z,30.20
2022-08-01T23:03:20.278Z,29.60
2022-08-01T23:06:20.913Z,29.40
2022-08-01T23:09:08.649Z,29.20
2022-08-01T23:11:57.882Z,29.60
2022-08-01T23:14:44.416Z,29.60
2022-08-01T23:17:31.593Z,30.00
2022-08-01T23:20:18.464Z,30.20
2022-08-01T23:23:05.107Z,30.30
2022-08-01T23:25:51.459Z,29.90
2022-08-01T23:28:38.854Z,29.40
2022-08-01T23:32:00.431Z,29.10
2022-08-01T23:34:31.916Z,28.90
2022-08-01T23:37:18.391Z,28.90
2022-08-01T23:40:04.571Z,29.00
2022-08-01T23:42:50.585Z,29.00
2022-08-01T23:46:03.718Z,28.70
2022-08-01T23:48:42.047Z,28.40
2022-08-01T23:51:27.542Z,28.30
2022-08-01T23:54:14.298Z,28.70
2022-08-01T23:57:00.169Z,29.20
2022-08-01T23:59:53.484Z,29.40
